Time;durP1;ratioP1;P1;durP2;ratioP2;P2;SDS_P1;SDS_P2;PMS_P1;PMS_P2;Temp;Humidity;BMP_temperature;BMP_pressure;BME280_temperature;BME280_humidity;BME280_pressure;Samples;Min_cycle;Max_cycle;Signal;HPM_P1;HPM_P2
2024/04/15 00:01:06;;;;;;;7.90;7.10;;;;;;;12.48;71.14;97053.05;104564;1272;100189;-91
2024/04/15 00:03:52;;;;;;;10.50;6.80;;;;;;;12.45;71.34;97051.83;104548;1257;99615;-90
2024/04/15 00:06:18;;;;;;;11.40;7.10;;;;;;;12.42;71.53;97049.61;104537;1275;99277;-90
2024/04/15 00:08:45;;;;;;;9.60;7.50;;;;;;;12.40;71.61;97052.27;104641;1257;99672;-90
2024/04/15 00:11:12;;;;;;;9.90;8.10;;;;;;;12.37;71.68;97049.64;104712;1274;99245;-89
2024/04/15 00:13:38;;;;;;;10.80;7.80;;;;;;;12.33;71.70;97048.23;104614;1261;100165;-88
2024/04/15 00:16:08;;;;;;;12.30;8.30;;;;;;;12.27;71.79;97046.14;104613;1259;99307;-81
2024/04/15 00:18:35;;;;;;;10.30;7.80;;;;;;;12.21;71.94;97039.63;104697;1258;99804;-81
2024/04/15 00:21:02;;;;;;;13.60;7.30;;;;;;;12.18;71.91;97036.43;104736;1257;99301;-81
2024/04/15 00:23:32;;;;;;;11.00;7.90;;;;;;;12.14;71.97;97028.21;104669;1261;99366;-81
2024/04/15 00:25:59;;;;;;;10.50;6.80;;;;;;;12.12;72.15;97025.69;104630;1265;99223;-81
2024/04/15 00:28:25;;;;;;;10.50;7.90;;;;;;;12.10;72.09;97019.73;104679;1261;100604;-78
2024/04/15 00:30:52;;;;;;;11.40;7.80;;;;;;;12.03;72.17;97013.18;104656;1261;99314;-78
2024/04/15 00:33:20;;;;;;;9.70;7.30;;;;;;;11.99;72.39;97006.19;104742;1258;99324;-78
2024/04/15 00:35:47;;;;;;;12.20;6.70;;;;;;;11.97;72.35;97004.08;104668;1274;100140;-78
2024/04/15 00:38:14;;;;;;;12.50;7.20;;;;;;;11.96;72.41;97007.08;104650;1261;99383;-79
2024/04/15 00:40:41;;;;;;;9.20;7.10;;;;;;;11.94;72.45;97008.44;104721;1262;99309;-78
2024/04/15 00:43:08;;;;;;;12.40;7.50;;;;;;;11.91;72.54;97004.52;104707;1261;99401;-78
2024/04/15 00:45:35;;;;;;;12.20;7.50;;;;;;;11.89;72.73;96999.13;104690;1273;99296;-89
2024/04/15 00:48:04;;;;;;;10.90;8.10;;;;;;;11.89;73.00;96995.67;104490;1273;99900;-89
2024/04/15 00:50:34;;;;;;;11.30;7.20;;;;;;;11.89;72.95;96992.36;104515;1261;99784;-88
2024/04/15 00:53:02;;;;;;;9.80;7.00;;;;;;;11.87;72.98;96993.54;104531;1265;105113;-90
2024/04/15 00:55:32;;;;;;;13.90;7.40;;;;;;;11.83;73.19;96990.02;104630;1257;101545;-90
2024/04/15 00:58:00;;;;;;;11.80;7.10;;;;;;;11.81;73.32;96988.20;104527;1262;99353;-89
2024/04/15 01:00:31;;;;;;;11.80;7.80;;;;;;;11.80;73.24;96982.92;104718;1261;99345;-88
2024/04/15 01:02:57;;;;;;;9.30;7.00;;;;;;;11.74;73.22;96975.15;104749;1257;99728;-79
2024/04/15 01:05:24;;;;;;;9.80;6.70;;;;;;;11.69;73.26;96968.70;104679;1261;99552;-80
2024/04/15 01:07:50;;;;;;;9.60;7.30;;;;;;;11.65;73.28;96965.77;104673;1268;99309;-79
2024/04/15 01:10:17;;;;;;;12.00;7.40;;;;;;;11.64;73.45;96960.64;104662;1257;100185;-79
2024/04/15 01:12:44;;;;;;;10.40;7.70;;;;;;;11.62;73.55;96957.34;104734;1260;99772;-79
2024/04/15 01:15:10;;;;;;;9.30;6.90;;;;;;;11.58;73.41;96951.08;104709;1262;99369;-79
2024/04/15 01:17:36;;;;;;;9.60;7.20;;;;;;;11.53;73.35;96945.19;104628;1258;99255;-79
2024/04/15 01:20:03;;;;;;;9.10;7.30;;;;;;;11.46;73.33;96939.18;104715;1274;99359;-79
2024/04/15 01:22:33;;;;;;;11.80;8.10;;;;;;;11.39;73.61;96931.20;104752;1261;99775;-90
2024/04/15 01:25:02;;;;;;;9.40;6.60;;;;;;;11.33;73.78;96929.70;104720;1259;104014;-80
2024/04/15 01:27:29;;;;;;;10.10;6.20;;;;;;;11.28;73.66;96926.06;104558;1261;156657;-80
2024/04/15 01:29:55;;;;;;;9.80;6.60;;;;;;;11.25;73.80;96918.27;104643;1258;99356;-80
2024/04/15 01:32:22;;;;;;;10.70;6.90;;;;;;;11.24;73.43;96914.55;104648;1273;99315;-80
2024/04/15 01:34:48;;;;;;;9.80;6.90;;;;;;;11.18;73.71;96910.52;104769;1257;99329;-80
2024/04/15 01:37:14;;;;;;;13.60;7.40;;;;;;;11.09;73.88;96905.35;104626;1261;101229;-80
2024/04/15 01:39:41;;;;;;;8.50;6.70;;;;;;;11.07;74.02;96900.93;104685;1280;99302;-80
2024/04/15 01:42:07;;;;;;;10.40;6.70;;;;;;;11.07;74.08;96898.77;104658;1261;99288;-81
2024/04/15 01:44:34;;;;;;;9.90;6.30;;;;;;;11.07;74.10;96898.61;104721;1258;99297;-90
2024/04/15 01:47:00;;;;;;;11.20;6.90;;;;;;;11.05;74.15;96891.52;104657;1262;101072;-81
2024/04/15 01:49:26;;;;;;;10.00;6.50;;;;;;;11.00;74.09;96886.14;104638;1257;99375;-82
2024/04/15 01:51:53;;;;;;;8.30;6.20;;;;;;;10.98;74.33;96879.12;104670;1269;99224;-81
2024/04/15 01:54:19;;;;;;;10.10;6.80;;;;;;;10.97;74.32;96862.17;104715;1281;99321;-81
2024/04/15 01:56:45;;;;;;;7.40;6.20;;;;;;;10.96;74.40;96856.91;104615;1263;100261;-81
2024/04/15 01:59:12;;;;;;;11.40;6.80;;;;;;;10.94;74.36;96849.56;104661;1262;99278;-81
2024/04/15 02:01:38;;;;;;;9.40;6.90;;;;;;;10.93;74.59;96845.89;104715;1261;99409;-81
2024/04/15 02:04:04;;;;;;;9.80;7.60;;;;;;;10.91;74.77;96844.91;104712;1261;99397;-81
2024/04/15 02:06:31;;;;;;;9.20;6.50;;;;;;;10.89;74.92;96840.36;104712;1258;100403;-82
2024/04/15 02:08:57;;;;;;;10.70;7.00;;;;;;;10.84;74.82;96837.23;104688;1261;99301;-82
2024/04/15 02:11:23;;;;;;;9.40;6.50;;;;;;;10.80;74.84;96830.52;104635;1258;100617;-82
2024/04/15 02:13:50;;;;;;;14.80;6.70;;;;;;;10.80;75.05;96830.73;104696;1265;99273;-79
2024/04/15 02:16:17;;;;;;;10.20;7.40;;;;;;;10.79;75.08;96831.94;104656;1261;101505;-89
2024/04/15 02:18:43;;;;;;;9.80;6.60;;;;;;;10.77;75.25;96826.93;104619;1261;99287;-90
2024/04/15 02:21:10;;;;;;;11.10;6.10;;;;;;;10.79;75.33;96820.38;104701;1273;99204;-82
2024/04/15 02:23:36;;;;;;;9.70;7.40;;;;;;;10.79;75.39;96819.80;104798;1262;99290;-78
2024/04/15 02:26:03;;;;;;;9.00;6.30;;;;;;;10.78;75.33;96813.71;104716;1263;100453;-78
2024/04/15 02:28:29;;;;;;;9.70;6.80;;;;;;;10.77;75.43;96809.85;104662;1262;99732;-78
2024/04/15 02:30:55;;;;;;;10.60;7.20;;;;;;;10.76;75.43;96805.73;104625;1262;99951;-89
2024/04/15 02:33:22;;;;;;;10.60;6.80;;;;;;;10.74;75.50;96794.67;104653;1257;99273;-91
2024/04/15 02:35:48;;;;;;;9.20;6.60;;;;;;;10.74;75.57;96789.06;104678;1261;101186;-90
2024/04/15 02:38:15;;;;;;;12.10;7.00;;;;;;;10.74;75.72;96782.67;104604;1262;99358;-88
2024/04/15 02:40:42;;;;;;;10.60;6.50;;;;;;;10.69;75.51;96775.95;104501;1258;99286;-89
2024/04/15 02:43:08;;;;;;;16.30;7.50;;;;;;;10.67;75.60;96769.05;104543;1264;99295;-87
2024/04/15 02:45:35;;;;;;;10.70;6.40;;;;;;;10.66;75.75;96765.48;104567;1261;99382;-81
2024/04/15 02:48:01;;;;;;;12.20;7.30;;;;;;;10.65;75.80;96763.21;104699;1261;99699;-80
2024/04/15 02:50:27;;;;;;;8.40;6.40;;;;;;;10.63;75.80;96758.30;104729;1262;99328;-80
2024/04/15 02:52:54;;;;;;;12.10;6.60;;;;;;;10.61;75.85;96749.88;104662;1261;100518;-81
2024/04/15 02:55:20;;;;;;;14.00;7.40;;;;;;;10.57;75.88;96740.90;104877;1256;99255;-81
2024/04/15 02:57:46;;;;;;;8.90;6.70;;;;;;;10.54;75.83;96740.64;104561;1264;99403;-79
2024/04/15 03:00:13;;;;;;;14.60;7.20;;;;;;;10.52;75.99;96733.12;104663;1259;99379;-82
2024/04/15 03:02:39;;;;;;;11.90;7.10;;;;;;;10.49;76.12;96730.63;104698;1261;99439;-82
2024/04/15 03:05:06;;;;;;;10.50;7.00;;;;;;;10.48;76.14;96735.00;104830;1259;99343;-83
2024/04/15 03:07:32;;;;;;;10.20;7.10;;;;;;;10.47;76.24;96725.67;104787;1262;99954;-82
2024/04/15 03:09:59;;;;;;;12.60;7.50;;;;;;;10.46;76.30;96719.30;104727;1260;99361;-83
2024/04/15 03:12:25;;;;;;;10.10;7.10;;;;;;;10.44;76.40;96715.45;104778;1261;99346;-84
2024/04/15 03:14:51;;;;;;;9.00;6.90;;;;;;;10.44;76.39;96720.67;104767;1260;100739;-84
2024/04/15 03:17:18;;;;;;;12.70;7.30;;;;;;;10.42;76.35;96719.91;104625;1280;100012;-79
2024/04/15 03:19:44;;;;;;;8.80;6.10;;;;;;;10.38;76.37;96709.64;104676;1274;99365;-80
2024/04/15 03:22:10;;;;;;;10.70;6.40;;;;;;;10.33;76.38;96705.55;104687;1258;99272;-82
2024/04/15 03:24:37;;;;;;;11.70;7.10;;;;;;;10.34;76.58;96705.08;104755;1271;99465;-80
2024/04/15 03:27:05;;;;;;;10.40;7.40;;;;;;;10.34;76.66;96703.79;104705;1261;99253;-80
2024/04/15 03:29:31;;;;;;;9.60;6.30;;;;;;;10.33;76.60;96699.65;104704;1259;99330;-81
2024/04/15 03:31:58;;;;;;;9.60;7.10;;;;;;;10.32;76.84;96693.80;104634;1260;99384;-90
2024/04/15 03:34:24;;;;;;;8.50;5.90;;;;;;;10.32;76.77;96683.11;104645;1262;99266;-90
2024/04/15 03:36:51;;;;;;;8.90;6.50;;;;;;;10.32;76.82;96678.91;104692;1263;99256;-82
2024/04/15 03:39:17;;;;;;;9.50;6.70;;;;;;;10.31;76.73;96674.61;104674;1263;99325;-82
2024/04/15 03:41:43;;;;;;;10.00;6.30;;;;;;;10.31;76.80;96665.32;104668;1258;99280;-82
2024/04/15 03:44:10;;;;;;;10.40;6.50;;;;;;;10.30;76.89;96660.55;104707;1262;100534;-82
2024/04/15 03:46:36;;;;;;;10.20;6.80;;;;;;;10.28;77.00;96659.20;104759;1273;99322;-81
2024/04/15 03:49:03;;;;;;;8.20;6.30;;;;;;;10.26;76.99;96654.80;104628;1259;99293;-81
2024/04/15 03:51:29;;;;;;;7.30;6.50;;;;;;;10.25;77.09;96641.26;104727;1261;99316;-81
2024/04/15 03:53:55;;;;;;;9.40;6.90;;;;;;;10.24;77.14;96635.58;104686;1262;100621;-82
2024/04/15 03:56:22;;;;;;;9.60;6.50;;;;;;;10.23;77.15;96637.99;104693;1257;99263;-86
2024/04/15 03:58:48;;;;;;;13.00;7.20;;;;;;;10.22;77.17;96635.10;104661;1259;100493;-88
2024/04/15 04:01:15;;;;;;;10.50;7.20;;;;;;;10.21;77.30;96628.64;104734;1261;99226;-79
2024/04/15 04:03:42;;;;;;;9.00;6.00;;;;;;;10.19;77.15;96622.64;104630;1261;99310;-86
2024/04/15 04:06:08;;;;;;;9.60;6.80;;;;;;;10.18;77.08;96620.82;104746;1261;99357;-86
2024/04/15 04:08:34;;;;;;;9.70;6.30;;;;;;;10.17;77.17;96616.79;104687;1261;99318;-86
2024/04/15 04:11:05;;;;;;;10.60;6.70;;;;;;;10.18;77.26;96623.98;104542;1257;100624;-87
2024/04/15 04:13:34;;;;;;;11.00;6.80;;;;;;;10.17;77.34;96618.44;104532;1272;103475;-87
2024/04/15 04:16:01;;;;;;;11.60;7.30;;;;;;;10.19;77.40;96614.77;104671;1261;101368;-80
2024/04/15 04:18:57;;;;;;;13.40;8.80;;;;;;;10.20;77.48;96606.91;104643;1262;99367;-84
2024/04/15 04:21:41;;;;;;;15.00;8.80;;;;;;;10.20;77.52;96596.09;104665;1257;99337;-87
2024/04/15 04:24:48;;;;;;;16.00;10.30;;;;;;;10.23;77.63;96592.98;104577;1258;99798;-83
2024/04/15 04:27:35;;;;;;;14.30;10.60;;;;;;;10.22;77.80;96590.42;104695;1259;104019;-83
2024/04/15 04:30:25;;;;;;;13.00;9.50;;;;;;;10.19;77.86;96583.48;104539;1277;100171;-83
2024/04/15 04:33:34;;;;;;;16.30;9.80;;;;;;;10.16;77.94;96572.87;104536;1275;100055;-83
2024/04/15 04:36:41;;;;;;;19.30;10.30;;;;;;;10.17;78.12;96574.31;104654;1264;99300;-82
2024/04/15 04:39:48;;;;;;;13.60;9.10;;;;;;;10.21;78.25;96581.13;104617;1264;99268;-79
2024/04/15 04:42:34;;;;;;;15.20;8.40;;;;;;;10.25;78.33;96585.27;104823;1274;103941;-80
2024/04/15 04:45:41;;;;;;;13.70;10.20;;;;;;;10.28;78.34;96587.34;104614;1261;100366;-77
2024/04/15 04:48:50;;;;;;;17.30;10.50;;;;;;;10.31;78.31;96585.38;104682;1257;99961;-80
2024/04/15 04:51:37;;;;;;;16.80;10.20;;;;;;;10.34;78.35;96574.10;104729;1263;100572;-80
2024/04/15 04:54:44;;;;;;;19.90;9.40;;;;;;;10.38;78.47;96565.34;104771;1260;99772;-79
2024/04/15 04:57:51;;;;;;;13.60;9.80;;;;;;;10.39;78.47;96570.27;104636;1261;104118;-85
2024/04/15 05:00:27;;;;;;;14.40;9.20;;;;;;;10.41;78.42;96565.30;104691;1260;100509;-84
2024/04/15 05:03:34;;;;;;;14.40;10.20;;;;;;;10.44;78.46;96567.43;104865;1258;99443;-84
2024/04/15 05:06:41;;;;;;;14.40;10.70;;;;;;;10.47;78.51;96565.57;104662;1259;99273;-84
2024/04/15 05:09:41;;;;;;;18.60;10.40;;;;;;;10.50;78.63;96543.66;104806;1261;99851;-83
2024/04/15 05:12:48;;;;;;;13.50;9.10;;;;;;;10.51;78.78;96522.48;104821;1260;104986;-82
2024/04/15 05:15:45;;;;;;;14.90;8.80;;;;;;;10.51;78.83;96514.17;104793;1260;100088;-84
2024/04/15 05:18:24;;;;;;;13.60;9.80;;;;;;;10.51;78.88;96516.98;104573;1270;99357;-84
2024/04/15 05:21:31;;;;;;;15.20;10.30;;;;;;;10.53;78.91;96521.17;104757;1256;99197;-83
2024/04/15 05:24:38;;;;;;;18.60;10.00;;;;;;;10.55;79.09;96523.30;104632;1256;99772;-84
2024/04/15 05:27:45;;;;;;;18.90;10.00;;;;;;;10.57;79.10;96525.77;104764;1260;104123;-84
2024/04/15 05:30:35;;;;;;;17.60;10.30;;;;;;;10.59;79.21;96530.68;104596;1262;100467;-83
2024/04/15 05:33:24;;;;;;;22.00;10.80;;;;;;;10.61;79.40;96532.19;104747;1262;100520;-82
2024/04/15 05:36:31;;;;;;;15.90;10.00;;;;;;;10.59;79.43;96519.93;104657;1259;99288;-84
2024/04/15 05:39:11;;;;;;;14.40;9.80;;;;;;;10.60;79.56;96552.46;104718;1255;99215;-82
2024/04/15 05:42:02;;;;;;;20.10;12.30;;;;;;;10.63;79.71;96671.06;104684;1259;104026;-81
2024/04/15 05:45:10;;;;;;;14.60;10.70;;;;;;;10.61;79.57;96708.59;104679;1259;100165;-80
2024/04/15 05:47:54;;;;;;;19.40;9.90;;;;;;;10.55;79.48;96704.19;104693;1259;99247;-80
2024/04/15 05:50:20;;;;;;;14.60;9.20;;;;;;;10.39;79.65;96663.89;104681;1265;100602;-79
2024/04/15 05:53:10;;;;;;;15.70;8.90;;;;;;;10.29;80.00;96647.24;104700;1257;99383;-81
2024/04/15 05:56:17;;;;;;;17.40;10.00;;;;;;;10.30;80.49;96640.05;104685;1257;103957;-81
2024/04/15 05:59:24;;;;;;;16.80;10.50;;;;;;;10.35;81.00;96630.23;104686;1262;101776;-82
2024/04/15 06:02:30;;;;;;;12.80;10.60;;;;;;;10.36;81.27;96622.64;104817;1259;100597;-82
2024/04/15 06:05:37;;;;;;;19.10;10.40;;;;;;;10.41;81.44;96618.94;104822;1256;100610;-80
2024/04/15 06:08:37;;;;;;;16.80;10.50;;;;;;;10.49;81.51;96621.24;104628;1270;99867;-80
2024/04/15 06:11:44;;;;;;;13.90;9.60;;;;;;;10.56;81.55;96617.48;104609;1279;104030;-82
2024/04/15 06:14:47;;;;;;;18.40;11.30;;;;;;;10.63;81.71;96610.48;104744;1259;100353;-81
2024/04/15 06:17:54;;;;;;;14.70;11.30;;;;;;;10.71;81.89;96595.58;104685;1260;99275;-85
2024/04/15 06:20:41;;;;;;;15.90;11.00;;;;;;;10.82;82.17;96568.55;104612;1257;99350;-84
2024/04/15 06:23:15;;;;;;;17.10;11.20;;;;;;;10.94;82.34;96557.94;104679;1262;99763;-83
2024/04/15 06:25:42;;;;;;;14.60;10.00;;;;;;;11.06;82.20;96646.86;104755;1257;103971;-83
2024/04/15 06:28:49;;;;;;;16.40;11.20;;;;;;;11.15;82.24;96754.63;104883;1276;99285;-83
2024/04/15 06:31:56;;;;;;;16.10;13.20;;;;;;;11.21;82.35;96661.16;105170;1256;99352;-84
2024/04/15 06:35:03;;;;;;;18.40;13.00;;;;;;;11.24;82.40;96650.73;105084;1263;99260;-85
2024/04/15 06:38:02;;;;;;;19.50;13.40;;;;;;;11.35;82.55;96644.50;104813;1266;99281;-83
2024/04/15 06:41:11;;;;;;;13.60;11.80;;;;;;;11.44;82.83;96625.81;104375;1268;103935;-83
2024/04/15 06:44:18;;;;;;;18.80;12.10;;;;;;;11.54;82.95;96623.50;104384;1268;100404;-83
2024/04/15 06:47:26;;;;;;;15.90;12.00;;;;;;;11.69;83.05;96622.27;104261;1279;100171;-83
2024/04/15 06:50:33;;;;;;;17.20;10.50;;;;;;;11.83;82.98;96610.15;104373;1269;99382;-84
2024/04/15 06:53:41;;;;;;;18.20;10.30;;;;;;;11.93;82.61;96602.89;104175;1271;100933;-83
2024/04/15 06:56:48;;;;;;;16.50;10.30;;;;;;;12.05;82.47;96590.20;104426;1266;104209;-83
2024/04/15 06:59:56;;;;;;;15.80;11.10;;;;;;;12.19;82.39;96588.39;104434;1268;110528;-83
2024/04/15 07:02:52;;;;;;;13.90;10.40;;;;;;;12.30;82.50;96583.28;104449;1276;99392;-81
2024/04/15 07:05:59;;;;;;;15.10;11.40;;;;;;;12.37;82.28;96583.16;104396;1270;99290;-81
2024/04/15 07:08:47;;;;;;;19.50;11.40;;;;;;;12.48;82.41;96593.54;104442;1265;101135;-84
2024/04/15 07:11:43;;;;;;;19.20;11.10;;;;;;;12.60;82.31;96593.75;104397;1269;104487;-83
2024/04/15 07:14:35;;;;;;;18.70;12.30;;;;;;;12.66;81.97;96585.95;104346;1264;101514;-84
2024/04/15 07:17:18;;;;;;;14.10;11.00;;;;;;;12.72;81.84;96595.15;104406;1278;100485;-84
2024/04/15 07:20:04;;;;;;;;;;;;;;;12.79;82.00;96595.48;104437;1263;99883;-84
2024/04/15 07:23:11;;;;;;;15.90;10.50;;;;;;;12.84;82.06;96596.86;104553;1266;99885;-84
2024/04/15 07:25:59;;;;;;;17.70;12.20;;;;;;;12.90;81.93;96599.52;104530;1263;103594;-84
2024/04/15 07:29:06;;;;;;;17.00;11.30;;;;;;;12.93;81.72;96604.77;104247;1266;100706;-83
2024/04/15 07:32:06;;;;;;;15.50;11.70;;;;;;;12.92;81.55;96603.83;104250;1270;99664;-82
2024/04/15 07:34:58;;;;;;;17.40;10.90;;;;;;;12.90;81.72;96595.63;104431;1267;99439;-82
2024/04/15 07:38:04;;;;;;;17.20;11.30;;;;;;;12.90;81.75;96565.34;104461;1263;99464;-82
2024/04/15 07:40:36;;;;;;;13.30;10.50;;;;;;;12.96;82.29;96552.31;104413;1268;103850;-83
2024/04/15 07:43:43;;;;;;;16.30;9.50;;;;;;;13.04;82.44;96560.30;104365;1268;100610;-82
2024/04/15 07:46:33;;;;;;;11.90;9.50;;;;;;;13.11;82.40;96544.10;104411;1267;99270;-83
2024/04/15 07:49:20;;;;;;;13.60;9.40;;;;;;;13.21;82.37;96534.68;104510;1262;100723;-83
2024/04/15 07:52:08;;;;;;;11.70;8.60;;;;;;;13.34;82.20;96534.72;104466;1267;99964;-83
2024/04/15 07:55:05;;;;;;;12.90;8.80;;;;;;;13.49;82.37;96540.45;104413;1268;103941;-83
2024/04/15 07:58:10;;;;;;;12.30;8.10;;;;;;;13.62;81.92;96550.11;104204;1286;100412;-87
2024/04/15 08:01:17;;;;;;;12.80;8.80;;;;;;;13.72;81.31;96549.27;104211;1265;99995;-84
2024/04/15 08:04:24;;;;;;;10.80;8.40;;;;;;;13.82;80.72;96542.17;104426;1268;99682;-82
2024/04/15 08:06:56;;;;;;;16.10;8.50;;;;;;;13.95;80.42;96528.39;104407;1263;99365;-83
2024/04/15 08:10:03;;;;;;;16.20;9.00;;;;;;;14.07;80.16;96523.59;104436;1263;103777;-82
2024/04/15 08:13:10;;;;;;;10.30;8.30;;;;;;;14.18;80.06;96523.20;104307;1269;100474;-83
2024/04/15 08:16:17;;;;;;;14.00;7.70;;;;;;;14.32;79.78;96523.47;104396;1268;100810;-83
2024/04/15 08:19:04;;;;;;;13.00;8.20;;;;;;;14.45;79.62;96524.11;104388;1276;99589;-82
2024/04/15 08:21:53;;;;;;;14.20;8.80;;;;;;;14.54;79.37;96519.38;104448;1263;100025;-82
2024/04/15 08:24:47;;;;;;;11.70;8.60;;;;;;;14.61;78.87;96495.36;104392;1263;103912;-82
2024/04/15 08:27:39;;;;;;;10.40;8.30;;;;;;;14.81;79.31;96486.23;104400;1268;100385;-82
2024/04/15 08:30:09;;;;;;;;;;;;;;;15.21;79.90;96481.55;104454;1276;100682;-82
2024/04/15 08:32:59;;;;;;;15.70;8.80;;;;;;;15.46;79.42;96479.40;104392;1268;99489;-84
2024/04/15 08:36:06;;;;;;;14.40;8.70;;;;;;;15.52;78.61;96482.05;104352;1268;99861;-83
2024/04/15 08:38:56;;;;;;;11.90;7.60;;;;;;;15.49;78.37;96488.13;104289;1263;103377;-83
2024/04/15 08:42:06;;;;;;;13.30;8.30;;;;;;;15.40;77.93;96491.23;104213;1265;101137;-83
2024/04/15 08:45:07;;;;;;;10.80;7.70;;;;;;;15.36;77.72;96504.15;104151;1281;99268;-81
2024/04/15 08:48:14;;;;;;;10.50;7.70;;;;;;;15.37;77.62;96514.23;104345;1267;99469;-82
2024/04/15 08:51:09;;;;;;;12.80;8.80;;;;;;;15.38;77.50;96495.52;104265;1273;99711;-83
2024/04/15 08:54:16;;;;;;;18.80;11.70;;;;;;;15.36;78.04;96496.11;104264;1268;104808;-84
2024/04/15 08:57:23;;;;;;;25.60;15.50;;;;;;;15.38;77.89;96490.62;104342;1276;101161;-83
2024/04/15 09:00:12;;;;;;;29.20;16.80;;;;;;;15.36;77.62;96478.52;104250;1278;99521;-83
2024/04/15 09:03:01;;;;;;;42.60;21.60;;;;;;;15.39;77.75;96473.71;104275;1267;100628;-81
2024/04/15 09:06:08;;;;;;;37.30;19.90;;;;;;;15.41;77.20;96461.50;104335;1269;100943;-82
2024/04/15 09:08:55;;;;;;;25.60;13.70;;;;;;;15.44;76.97;96452.65;104245;1268;104924;-82
2024/04/15 09:12:02;;;;;;;13.00;8.50;;;;;;;15.57;77.17;96454.09;104262;1267;101331;-81
2024/04/15 09:14:59;;;;;;;11.70;6.50;;;;;;;15.81;76.98;96454.01;104390;1268;99388;-82
2024/04/15 09:17:56;;;;;;;12.50;6.40;;;;;;;16.02;76.02;96454.84;104295;1268;99400;-84
2024/04/15 09:20:56;;;;;;;10.60;6.00;;;;;;;16.07;75.19;96451.57;104404;1270;101042;-84
2024/04/15 09:24:03;;;;;;;9.40;6.40;;;;;;;16.11;74.83;96438.95;104239;1268;104974;-83
2024/04/15 09:26:50;;;;;;;11.20;5.30;;;;;;;16.33;74.98;96438.22;104330;1269;100565;-84
2024/04/15 09:29:38;;;;;;;9.10;4.80;;;;;;;16.62;74.43;96440.31;104289;1285;100187;-83
2024/04/15 09:32:45;;;;;;;5.70;4.50;;;;;;;16.81;73.51;96442.88;104278;1267;99443;-82
2024/04/15 09:35:52;;;;;;;10.00;5.20;;;;;;;16.81;73.62;96452.91;104212;1269;99761;-82
2024/04/15 09:38:44;;;;;;;7.10;4.90;;;;;;;16.74;73.24;96462.78;104226;1270;104462;-82
2024/04/15 09:41:51;;;;;;;7.50;5.60;;;;;;;16.64;72.71;96461.80;104284;1267;101320;-82
2024/04/15 09:44:58;;;;;;;4.70;4.20;;;;;;;16.55;72.45;96466.56;104284;1269;100583;-85
2024/04/15 09:48:04;;;;;;;6.50;4.10;;;;;;;16.48;73.14;96478.38;104374;1266;99576;-82
2024/04/15 09:50:53;;;;;;;6.20;4.00;;;;;;;16.45;73.06;96487.73;104732;1269;99778;-82
2024/04/15 09:54:01;;;;;;;6.20;4.20;;;;;;;16.43;72.88;96499.24;104765;1271;105011;-81
2024/04/15 09:56:49;;;;;;;6.70;3.80;;;;;;;16.35;72.69;96502.45;104746;1259;100638;-82
2024/04/15 09:59:56;;;;;;;6.80;4.10;;;;;;;16.19;72.66;96505.67;104755;1269;100081;-82
2024/04/15 10:03:12;;;;;;;6.90;4.60;;;;;;;16.09;72.97;96514.58;104734;1270;99289;-83
2024/04/15 10:06:19;;;;;;;5.60;4.30;;;;;;;16.01;73.15;96517.32;104047;1272;99811;-81
2024/04/15 10:09:17;;;;;;;7.90;4.90;;;;;;;15.88;73.51;96509.77;103988;1273;103992;-82
2024/04/15 10:12:08;;;;;;;6.80;4.60;;;;;;;15.77;73.83;96506.79;104006;1274;100413;-82
2024/04/15 10:15:05;;;;;;;8.50;4.60;;;;;;;15.69;74.03;96507.19;103849;1274;99590;-84
2024/04/15 10:17:37;;;;;;;11.20;4.60;;;;;;;15.57;74.35;96505.77;103930;1272;99299;-81
2024/04/15 10:20:49;;;;;;;8.90;4.80;;;;;;;15.46;74.62;96499.00;103909;1273;99369;-82
2024/04/15 10:23:57;;;;;;;9.80;5.60;;;;;;;15.30;74.95;96484.39;103853;1274;104813;-81
2024/04/15 10:27:04;;;;;;;8.90;5.80;;;;;;;15.11;75.43;96479.33;103871;1275;100672;-81
2024/04/15 10:30:10;;;;;;;10.70;5.60;;;;;;;14.98;76.28;96471.85;103927;1275;99999;-80
2024/04/15 10:33:00;;;;;;;8.10;5.90;;;;;;;14.89;76.49;96482.60;103856;1269;99474;-80
2024/04/15 10:36:06;;;;;;;9.50;6.20;;;;;;;14.92;76.64;96485.77;103788;1284;99849;-83
2024/04/15 10:38:55;;;;;;;7.80;6.50;;;;;;;14.91;76.84;96477.29;103923;1268;103968;-80
2024/04/15 10:42:02;;;;;;;7.00;3.90;;;;;;;14.90;77.12;96466.67;103793;1277;101195;-84
2024/04/15 10:44:41;;;;;;;5.60;3.30;;;;;;;14.94;76.72;96468.57;104707;1263;99717;-85
2024/04/15 10:47:28;;;;;;;4.70;3.00;;;;;;;14.98;76.73;96461.34;104852;1269;99377;-81
2024/04/15 10:50:08;;;;;;;3.30;2.30;;;;;;;14.98;76.67;96448.70;104969;1260;99845;-81
2024/04/15 10:52:58;;;;;;;4.40;2.80;;;;;;;14.90;76.41;96455.43;104998;1267;103991;-81
2024/04/15 10:55:55;;;;;;;4.90;2.60;;;;;;;14.86;76.49;96464.59;104967;1261;100476;-81
2024/04/15 10:58:51;;;;;;;4.80;2.50;;;;;;;14.82;76.50;96470.91;104668;1277;99257;-83
2024/04/15 11:01:48;;;;;;;3.00;2.60;;;;;;;14.80;76.73;96468.68;104701;1258;99273;-82
2024/04/15 11:04:48;;;;;;;5.00;2.60;;;;;;;14.78;76.55;96471.48;104656;1268;99772;-80
2024/04/15 11:07:38;;;;;;;5.50;2.80;;;;;;;14.75;76.60;96474.88;104638;1271;103759;-82
2024/04/15 11:10:13;;;;;;;6.80;3.60;;;;;;;14.73;76.97;96481.17;104687;1262;101502;-79
2024/04/15 11:13:20;;;;;;;7.30;3.40;;;;;;;14.65;77.09;96482.20;104641;1270;100610;-80
2024/04/15 11:16:27;;;;;;;5.80;3.70;;;;;;;14.59;77.26;96483.13;104641;1257;99247;-80
2024/04/15 11:19:34;;;;;;;5.00;3.30;;;;;;;14.59;77.58;96473.96;104648;1263;99702;-80
2024/04/15 11:22:41;;;;;;;7.00;3.40;;;;;;;14.56;77.71;96467.02;104700;1260;104890;-80
2024/04/15 11:25:51;;;;;;;6.80;4.10;;;;;;;14.55;78.25;96456.38;104640;1269;100610;-81
2024/04/15 11:28:58;;;;;;;12.30;4.30;;;;;;;14.55;78.36;96467.79;104476;1263;100828;-80
2024/04/15 11:31:47;;;;;;;4.90;3.60;;;;;;;14.56;78.43;96469.42;104734;1270;99263;-81
2024/04/15 11:34:54;;;;;;;7.20;4.70;;;;;;;14.58;78.37;96461.68;104787;1275;99903;-79
2024/04/15 11:37:24;;;;;;;7.60;4.20;;;;;;;14.58;78.68;96447.94;104749;1263;104861;-81
2024/04/15 11:40:30;;;;;;;4.70;4.10;;;;;;;14.60;78.69;96451.36;104686;1279;101606;-80
2024/04/15 11:43:03;;;;;;;4.60;3.30;;;;;;;14.60;78.67;96458.16;104638;1273;100199;-81
2024/04/15 11:45:30;;;;;;;;;;;;;;;14.55;78.48;96449.04;104764;1262;99279;-81
2024/04/15 11:48:37;;;;;;;7.90;3.70;;;;;;;14.49;78.59;96434.33;104756;1270;99295;-79
2024/04/15 11:51:10;;;;;;;4.30;3.50;;;;;;;14.48;78.86;96423.30;104621;1265;105133;-81
2024/04/15 11:54:17;;;;;;;7.50;4.50;;;;;;;14.49;78.92;96409.02;104740;1270;100565;-80
2024/04/15 11:57:23;;;;;;;9.40;5.50;;;;;;;14.46;79.11;96388.52;104644;1270;100685;-81
2024/04/15 12:00:21;;;;;;;6.30;4.50;;;;;;;14.48;79.48;96381.16;104672;1261;99331;-81
2024/04/15 12:03:28;;;;;;;9.70;4.60;;;;;;;14.47;79.08;96371.44;104516;1272;100863;-80
2024/04/15 12:06:02;;;;;;;9.10;5.00;;;;;;;14.48;79.33;96361.61;104639;1263;104074;-81
2024/04/15 12:08:59;;;;;;;7.80;5.30;;;;;;;14.52;79.57;96356.73;104599;1272;100268;-81
2024/04/15 12:12:06;;;;;;;7.80;4.90;;;;;;;14.57;79.93;96362.48;104632;1264;100572;-81
2024/04/15 12:14:53;;;;;;;4.40;3.00;;;;;;;14.58;79.96;96356.09;104583;1263;99251;-83
2024/04/15 12:17:49;;;;;;;4.40;2.90;;;;;;;14.61;79.73;96351.20;104713;1257;99720;-81
2024/04/15 12:20:49;;;;;;;6.70;2.50;;;;;;;14.60;79.63;96343.45;104770;1270;104740;-80
2024/04/15 12:23:40;;;;;;;3.80;2.80;;;;;;;14.56;79.27;96325.05;104832;1264;100447;-82
2024/04/15 12:26:26;;;;;;;2.70;2.30;;;;;;;14.60;79.13;96332.36;104667;1270;99349;-81
2024/04/15 12:29:16;;;;;;;4.20;3.30;;;;;;;14.57;78.69;96345.48;104761;1260;99365;-81
2024/04/15 12:32:23;;;;;;;7.30;4.30;;;;;;;14.56;78.43;96350.95;104782;1264;99692;-82
2024/04/15 12:35:19;;;;;;;7.00;4.00;;;;;;;14.58;78.46;96335.89;104683;1270;104924;-81
2024/04/15 12:38:25;;;;;;;7.20;3.80;;;;;;;14.59;78.82;96335.23;104798;1266;100077;-81
2024/04/15 12:41:30;;;;;;;9.20;4.80;;;;;;;14.61;79.20;96343.22;104725;1264;99484;-81